Hauptseite
METAR-TAF:

METAR-TAF

Flughäfen :

Flugplatz Les Eplatures

La Chaux-de-Fonds, Schweiz

Breite: 47-05-03N, Länge: 006-47-37E, Höhe: 1027 m

Beobachtung

Neuester Wetterbericht von vor 25 Minuten, um 06:50 UTC
Wind 2 kt aus unterschiedlichen Richtungen
Temperatur 10°C
Luftfeuchtigkeit 100%
Luftdruck 1027 hPa
Sichtweite: 8000 m
Leicht bewölkt in der Höhe von 400 ft
Aufgelockert bewölkt in der Höhe von 900 ft

METAR: LSGC 070650Z VRB02KT 8000 FEW004 SCT009 10/10 Q1027

Zeit: 09:15 (07:15 UTC)

Prognose

Neuester Wetterbericht von vor 1 Stunde und 50 Minuten, um 05:25 UTC
Gültige Prognose vom 07 um 06 UTC bis 07 um 15 UTC
Wind 2 kt aus unterschiedlichen Richtungen
Sichtweite: 6000 m
Geschlossene Wolkendecke in der Höhe von 600 ft
Übergehend zu
vom 07 um 08 UTC bis 07 um 12 UTC
Leicht bewölkt in der Höhe von 1000 ft

TAF: LSGC 070525Z 0706/0715 VRB02KT 6000 OVC006 BECMG 0708/0712 FEW010

Wetterbeobachtungen und Prognosen von mehr als 4000 Flughäfen (METAR und TAF Bericht).

Die verfügbaren Stationen werden durch gelbe und rote Markierungen auf der Karte dargestellt.

Führen Sie die Maus auf sie, um den Namen der Station zu sehen.

Darauf klicken, um die Beobachtung von Wetterbeobachtungen und Prognosen zu sehen.

Um die Karte zu ändern : klicken Sie auf den grünen Tasten mit einem schwarzen Kreuz Zum Vergrößern, auf den grünen Button mit einem Gedankenstrich zu verkleinern, oder auf die grünen Pfeile für benachbarte Karten.


METAR-TAF: